createdAt,value
2022-11-18T00:00:23.354Z,26.02
2022-11-18T00:02:54.688Z,23.65
2022-11-18T00:05:28.491Z,27.45
2022-11-18T00:11:01.422Z,25.95
2022-11-18T00:17:17.351Z,30.38
2022-11-18T00:20:01.536Z,29.33
2022-11-18T00:22:52.239Z,25.98
2022-11-18T00:25:42.560Z,32.37
2022-11-18T00:28:23.970Z,34.70
2022-11-18T00:31:07.821Z,34.50
2022-11-18T00:33:47.224Z,29.75
2022-11-18T00:36:21.456Z,31.65
2022-11-18T00:39:05.217Z,38.30
2022-11-18T00:42:04.174Z,32.92
2022-11-18T00:47:36.224Z,34.05
2022-11-18T00:52:45.045Z,38.15
2022-11-18T00:55:32.802Z,42.60
2022-11-18T00:58:13.574Z,41.83
2022-11-18T01:00:47.692Z,42.80
2022-11-18T01:03:33.245Z,41.30
2022-11-18T01:06:36.567Z,47.65
2022-11-18T01:09:25.198Z,43.80
2022-11-18T01:12:18.753Z,49.53
2022-11-18T01:15:29.180Z,57.55
2022-11-18T01:18:10.083Z,58.28
2022-11-18T01:21:11.435Z,52.85
2022-11-18T01:23:50.262Z,50.35
2022-11-18T01:26:21.170Z,58.28
2022-11-18T01:29:04.476Z,35.70
2022-11-18T01:32:22.793Z,55.65
2022-11-18T01:35:05.358Z,55.70
2022-11-18T01:37:41.449Z,58.25
2022-11-18T01:40:43.438Z,59.08
2022-11-18T01:46:11.364Z,60.90
2022-11-18T01:48:41.404Z,61.63
2022-11-18T01:51:35.381Z,60.95
2022-11-18T01:54:34.067Z,63.53
2022-11-18T01:57:13.616Z,62.42
2022-11-18T01:59:48.807Z,64.82
2022-11-18T02:02:34.646Z,69.45
2022-11-18T02:05:27.764Z,54.80
2022-11-18T02:08:08.836Z,70.88
2022-11-18T02:10:48.410Z,62.17
2022-11-18T02:16:31.544Z,65.72
2022-11-18T02:19:41.296Z,70.70
2022-11-18T02:22:39.791Z,67.82
2022-11-18T02:25:47.150Z,77.32
2022-11-18T02:29:12.105Z,66.97
2022-11-18T02:32:52.118Z,70.18
2022-11-18T02:35:07.840Z,75.82
2022-11-18T02:41:00.324Z,78.25
2022-11-18T02:43:40.733Z,66.68
2022-11-18T02:46:27.174Z,65.15
2022-11-18T02:49:35.474Z,79.53
2022-11-18T02:52:37.651Z,70.90
2022-11-18T02:55:16.151Z,66.85
2022-11-18T02:57:57.045Z,69.93
2022-11-18T03:01:01.633Z,71.53
2022-11-18T03:07:14.995Z,68.75
2022-11-18T03:09:58.391Z,67.38
2022-11-18T03:12:37.473Z,72.53
2022-11-18T03:15:20.108Z,70.47
2022-11-18T03:18:23.687Z,71.28
2022-11-18T03:21:20.180Z,75.32
2022-11-18T03:24:08.819Z,75.47
2022-11-18T03:27:15.562Z,66.90
2022-11-18T03:29:59.097Z,65.05
2022-11-18T03:39:04.985Z,66.65
2022-11-18T03:41:51.596Z,62.50
2022-11-18T03:47:54.412Z,65.68
2022-11-18T03:50:53.569Z,59.90
2022-11-18T03:53:56.698Z,63.53
2022-11-18T03:56:46.276Z,62.78
2022-11-18T03:59:44.905Z,63.90
2022-11-18T04:02:28.941Z,60.92
2022-11-18T04:05:13.329Z,63.60
2022-11-18T04:08:04.312Z,59.97
2022-11-18T04:14:02.580Z,70.80
2022-11-18T04:20:06.959Z,63.95
2022-11-18T04:22:45.264Z,67.45
2022-11-18T04:25:51.130Z,66.28
2022-11-18T04:28:30.415Z,68.40
2022-11-18T04:31:13.591Z,68.13
2022-11-18T04:33:45.652Z,55.35
2022-11-18T04:36:41.921Z,68.95
2022-11-18T04:39:45.600Z,52.95
2022-11-18T04:42:34.576Z,61.15
2022-11-18T04:45:20.150Z,64.30
2022-11-18T04:53:49.528Z,65.53
2022-11-18T04:56:41.740Z,61.28
2022-11-18T04:59:51.872Z,57.47
2022-11-18T05:02:33.240Z,63.60
2022-11-18T05:05:20.925Z,51.80
2022-11-18T05:15:27.354Z,67.45
2022-11-18T05:18:00.866Z,66.60
2022-11-18T05:20:50.898Z,62.03
2022-11-18T05:23:43.504Z,60.25
2022-11-18T05:26:28.885Z,63.65
2022-11-18T05:29:18.243Z,63.33
2022-11-18T05:32:12.841Z,58.50
2022-11-18T05:35:11.778Z,57.85
2022-11-18T05:41:01.208Z,57.90
2022-11-18T05:43:54.355Z,63.20
2022-11-18T05:49:37.661Z,61.78
2022-11-18T05:52:53.105Z,65.60
2022-11-18T05:58:50.504Z,57.28
2022-11-18T06:01:49.022Z,51.30
2022-11-18T06:05:23.935Z,59.75
2022-11-18T06:07:51.902Z,53.50
2022-11-18T06:10:42.519Z,54.63
2022-11-18T06:13:43.610Z,52.92
2022-11-18T06:17:22.766Z,48.38
2022-11-18T06:19:34.487Z,50.50
2022-11-18T06:22:06.702Z,56.88
2022-11-18T06:25:14.140Z,53.92
2022-11-18T06:31:21.149Z,50.97
2022-11-18T06:43:41.526Z,65.65
2022-11-18T06:46:49.579Z,52.88
2022-11-18T06:49:50.713Z,66.32
2022-11-18T06:52:48.010Z,54.53
2022-11-18T07:02:11.367Z,53.53
2022-11-18T07:04:42.397Z,58.72
2022-11-18T07:07:42.069Z,54.40
2022-11-18T07:16:47.727Z,55.92
2022-11-18T07:19:58.859Z,59.25
2022-11-18T07:26:01.750Z,58.90
2022-11-18T07:31:31.594Z,51.72
2022-11-18T07:34:57.993Z,63.45
2022-11-18T07:38:19.542Z,66.05
2022-11-18T07:40:53.871Z,60.20
2022-11-18T07:43:26.814Z,65.53
2022-11-18T07:46:23.773Z,55.08
2022-11-18T07:49:11.876Z,70.72
2022-11-18T07:51:45.326Z,51.95
2022-11-18T07:54:41.795Z,70.88
2022-11-18T07:57:15.069Z,62.10
2022-11-18T08:05:18.058Z,65.03
2022-11-18T08:07:52.823Z,70.03
2022-11-18T08:13:20.818Z,68.05
2022-11-18T08:22:44.625Z,65.35
2022-11-18T08:25:35.314Z,69.57
2022-11-18T08:38:43.139Z,58.10
2022-11-18T08:41:52.919Z,43.47
2022-11-18T08:44:53.627Z,52.67
2022-11-18T08:51:16.496Z,41.28
2022-11-18T08:54:23.271Z,48.25
2022-11-18T08:58:46.773Z,49.60
2022-11-18T09:01:27.754Z,55.53
2022-11-18T09:04:13.323Z,45.05
2022-11-18T09:07:12.547Z,36.35
2022-11-18T09:12:44.029Z,41.55
2022-11-18T09:21:16.522Z,39.72
2022-11-18T09:24:00.554Z,39.05
2022-11-18T09:26:34.311Z,31.50
2022-11-18T09:30:12.721Z,32.28
2022-11-18T09:32:41.152Z,25.80
2022-11-18T09:35:48.520Z,28.00
2022-11-18T09:38:27.839Z,33.20
2022-11-18T09:44:39.207Z,28.33
2022-11-18T09:53:25.095Z,28.65
2022-11-18T09:55:58.390Z,26.80
2022-11-18T09:58:40.840Z,28.38
2022-11-18T10:04:24.914Z,27.38
2022-11-18T10:06:54.161Z,33.33
2022-11-18T10:09:44.153Z,28.77
2022-11-18T10:12:24.873Z,27.60
2022-11-18T10:18:52.794Z,27.30
2022-11-18T10:21:54.488Z,24.90
2022-11-18T10:24:44.672Z,27.30
2022-11-18T10:27:13.699Z,25.88
2022-11-18T10:29:41.157Z,31.80
2022-11-18T10:32:13.591Z,27.10
2022-11-18T10:34:48.483Z,26.60
2022-11-18T10:37:52.960Z,24.95
2022-11-18T10:40:24.493Z,27.08
2022-11-18T10:42:51.990Z,32.95
2022-11-18T10:45:27.115Z,27.20
2022-11-18T10:48:00.195Z,25.25
2022-11-18T10:50:30.516Z,27.20
2022-11-18T10:53:06.137Z,24.92
2022-11-18T10:55:36.280Z,27.55
2022-11-18T10:58:15.287Z,28.00
2022-11-18T11:01:16.286Z,25.58
2022-11-18T11:03:59.571Z,23.35
2022-11-18T11:06:36.354Z,21.98
2022-11-18T11:09:10.170Z,25.58
2022-11-18T11:11:38.853Z,24.27
2022-11-18T11:14:32.566Z,20.92
2022-11-18T11:17:13.223Z,18.73
2022-11-18T11:19:53.657Z,15.20
2022-11-18T11:25:28.215Z,15.98
2022-11-18T11:28:14.941Z,17.33
2022-11-18T11:30:56.864Z,16.15
2022-11-18T11:33:49.847Z,16.10
2022-11-18T11:40:24.793Z,16.65
2022-11-18T11:43:46.937Z,21.40
2022-11-18T11:47:06.237Z,23.65
2022-11-18T11:49:53.347Z,24.10
2022-11-18T11:56:03.971Z,24.70
2022-11-18T12:02:07.412Z,21.83
2022-11-18T12:14:56.637Z,25.00
2022-11-18T12:18:09.665Z,19.38
2022-11-18T12:20:56.310Z,19.27
2022-11-18T12:23:29.032Z,18.60
2022-11-18T12:26:17.759Z,16.63
2022-11-18T12:28:52.085Z,18.77
2022-11-18T12:31:35.253Z,17.50
2022-11-18T12:34:32.855Z,18.02
2022-11-18T12:50:55.231Z,18.17
2022-11-18T12:53:37.948Z,18.83
2022-11-18T13:06:59.996Z,19.42
2022-11-18T13:09:41.366Z,21.23
2022-11-18T13:12:19.153Z,20.15
2022-11-18T13:14:46.155Z,21.70
2022-11-18T13:17:39.390Z,23.23
2022-11-18T13:20:19.617Z,18.05
2022-11-18T13:22:51.214Z,20.98
2022-11-18T13:28:09.852Z,19.30
2022-11-18T13:30:43.695Z,27.58
2022-11-18T13:33:15.487Z,26.48
2022-11-18T13:35:52.216Z,23.02
2022-11-18T13:38:29.671Z,24.25
2022-11-18T13:40:56.464Z,22.13
2022-11-18T13:43:28.550Z,22.67
2022-11-18T13:45:55.902Z,23.85
2022-11-18T13:48:23.279Z,26.05
2022-11-18T14:00:30.349Z,18.83
2022-11-18T14:03:00.735Z,20.48
2022-11-18T14:05:32.403Z,16.67
2022-11-18T14:08:06.927Z,15.98
2022-11-18T14:10:41.337Z,19.20
2022-11-18T14:13:31.986Z,17.08
2022-11-18T14:19:07.796Z,16.38
2022-11-18T14:21:37.944Z,18.05
2022-11-18T14:24:17.456Z,17.20
2022-11-18T14:26:48.519Z,22.63
2022-11-18T14:29:19.196Z,18.55
2022-11-18T14:32:04.466Z,20.55
2022-11-18T14:34:45.950Z,19.52
2022-11-18T14:39:56.741Z,21.58
2022-11-18T14:42:24.767Z,19.85
2022-11-18T14:45:24.300Z,22.42
2022-11-18T14:47:43.148Z,23.35
2022-11-18T14:50:20.668Z,24.02
2022-11-18T14:52:49.388Z,25.95
2022-11-18T14:55:20.364Z,27.23
2022-11-18T14:57:47.096Z,27.70
2022-11-18T15:00:17.004Z,20.45
2022-11-18T15:02:43.761Z,22.15
2022-11-18T15:05:10.705Z,32.47
2022-11-18T15:07:39.678Z,27.70
2022-11-18T15:10:07.108Z,26.80
2022-11-18T15:12:35.575Z,30.13
2022-11-18T15:15:05.568Z,30.73
2022-11-18T15:17:32.584Z,26.33
2022-11-18T15:20:02.636Z,31.58
2022-11-18T15:22:32.398Z,27.33
2022-11-18T15:25:01.054Z,28.58
2022-11-18T15:27:27.851Z,28.85
2022-11-18T15:30:01.460Z,36.58
2022-11-18T15:32:28.584Z,28.73
2022-11-18T15:34:58.846Z,30.45
2022-11-18T15:37:25.947Z,35.67
2022-11-18T15:39:54.950Z,32.75
2022-11-18T15:42:23.511Z,28.95
2022-11-18T15:44:50.914Z,31.30
2022-11-18T15:47:18.933Z,29.98
2022-11-18T15:49:51.898Z,27.88
2022-11-18T15:52:18.562Z,28.90
2022-11-18T15:54:45.339Z,29.83
2022-11-18T15:57:12.371Z,31.08
2022-11-18T15:59:41.870Z,25.55
2022-11-18T16:02:10.161Z,25.08
2022-11-18T16:04:40.084Z,23.38
2022-11-18T16:07:06.870Z,18.67
2022-11-18T16:09:33.629Z,19.50
2022-11-18T16:12:08.471Z,18.98
2022-11-18T16:14:36.746Z,19.70
2022-11-18T16:17:03.803Z,16.80
2022-11-18T16:19:33.890Z,19.05
2022-11-18T16:22:03.131Z,19.15
2022-11-18T16:24:48.250Z,18.17
2022-11-18T16:27:15.705Z,19.55
2022-11-18T16:29:44.179Z,16.15
2022-11-18T16:32:13.700Z,16.00
2022-11-18T16:34:41.140Z,19.52
2022-11-18T16:37:49.116Z,16.95
2022-11-18T16:40:58.421Z,14.80
2022-11-18T16:43:32.504Z,13.05
2022-11-18T16:46:01.748Z,12.57
2022-11-18T16:48:31.619Z,13.02
2022-11-18T16:51:18.904Z,13.35
2022-11-18T16:57:07.151Z,15.70
2022-11-18T16:59:44.586Z,15.95
2022-11-18T17:02:17.835Z,16.40
2022-11-18T17:04:46.996Z,18.77
2022-11-18T17:07:16.830Z,23.73
2022-11-18T17:09:46.213Z,16.85
2022-11-18T17:12:18.425Z,19.27
2022-11-18T17:14:45.256Z,19.85
2022-11-18T17:17:13.802Z,19.45
2022-11-18T17:19:44.219Z,20.02
2022-11-18T17:22:10.875Z,18.85
2022-11-18T17:24:37.667Z,24.65
2022-11-18T17:27:06.518Z,19.67
2022-11-18T17:29:34.786Z,21.80
2022-11-18T17:32:01.718Z,25.58
2022-11-18T17:34:31.981Z,22.30
2022-11-18T17:37:40.187Z,20.13
2022-11-18T17:42:50.383Z,18.52
2022-11-18T17:45:43.387Z,18.15
2022-11-18T17:48:10.189Z,17.85
2022-11-18T17:51:25.845Z,21.42
2022-11-18T17:53:58.171Z,27.23
2022-11-18T18:00:04.719Z,28.27
2022-11-18T18:02:47.284Z,44.05
2022-11-18T18:06:03.070Z,36.22
2022-11-18T18:08:34.970Z,38.92
2022-11-18T18:11:02.851Z,46.85
2022-11-18T18:14:08.324Z,36.08
2022-11-18T18:16:37.454Z,34.08
2022-11-18T18:21:59.509Z,30.52
2022-11-18T18:24:35.032Z,28.65
2022-11-18T18:27:06.440Z,32.60
2022-11-18T18:35:09.132Z,33.38
2022-11-18T18:37:49.096Z,35.17
2022-11-18T18:40:22.701Z,42.25
2022-11-18T18:42:49.609Z,42.53
2022-11-18T18:45:25.270Z,50.05
2022-11-18T18:47:54.381Z,44.65
2022-11-18T18:50:29.680Z,50.40
2022-11-18T18:52:56.826Z,44.50
2022-11-18T18:55:27.878Z,38.53
2022-11-18T18:57:57.407Z,41.47
2022-11-18T19:00:32.888Z,40.97
2022-11-18T19:03:00.728Z,31.02
2022-11-18T19:06:12.286Z,29.55
2022-11-18T19:08:23.879Z,28.75
2022-11-18T19:10:53.774Z,35.53
2022-11-18T19:13:31.697Z,39.10
2022-11-18T19:15:59.847Z,40.55
2022-11-18T19:18:27.020Z,37.70
2022-11-18T19:20:55.776Z,41.10
2022-11-18T19:23:25.685Z,45.55
2022-11-18T19:25:59.113Z,42.03
2022-11-18T19:28:25.862Z,52.10
2022-11-18T19:30:54.439Z,46.03
2022-11-18T19:33:21.472Z,40.13
2022-11-18T19:35:48.522Z,42.78
2022-11-18T19:38:16.978Z,37.08
2022-11-18T19:40:43.935Z,35.20
2022-11-18T19:43:10.762Z,32.88
2022-11-18T19:45:39.856Z,33.95
2022-11-18T19:48:06.599Z,34.58
2022-11-18T19:50:34.916Z,35.45
2022-11-18T19:53:07.098Z,37.13
2022-11-18T19:55:52.445Z,37.35
2022-11-18T19:58:19.110Z,34.65
2022-11-18T20:00:45.856Z,36.10
2022-11-18T20:03:14.081Z,33.47
2022-11-18T20:05:45.994Z,35.05
2022-11-18T20:08:17.898Z,35.22
2022-11-18T20:10:49.144Z,38.85
2022-11-18T20:13:16.250Z,38.50
2022-11-18T20:15:44.020Z,35.47
2022-11-18T20:18:11.363Z,38.55
2022-11-18T20:20:38.259Z,39.95
2022-11-18T20:23:07.049Z,40.13
2022-11-18T20:25:45.852Z,48.03
2022-11-18T20:28:20.564Z,45.65
2022-11-18T20:30:47.961Z,50.28
2022-11-18T20:33:26.249Z,61.83
2022-11-18T20:36:01.825Z,54.92
2022-11-18T20:38:28.641Z,58.17
2022-11-18T20:41:00.938Z,56.17
2022-11-18T20:43:31.912Z,53.78
2022-11-18T20:45:58.614Z,49.67
2022-11-18T20:48:27.486Z,49.97
2022-11-18T20:50:54.561Z,40.03
2022-11-18T20:53:21.286Z,36.20
2022-11-18T20:55:50.254Z,37.17
2022-11-18T20:58:17.856Z,35.40
2022-11-18T21:03:35.566Z,30.30
2022-11-18T21:06:14.858Z,28.73
2022-11-18T21:08:46.928Z,30.27
2022-11-18T21:11:16.594Z,26.35
2022-11-18T21:13:45.818Z,27.15
2022-11-18T21:16:16.055Z,25.17
2022-11-18T21:18:45.194Z,25.73
2022-11-18T21:21:11.887Z,22.83
2022-11-18T21:23:38.601Z,21.75
2022-11-18T21:26:33.363Z,18.15
2022-11-18T21:29:02.921Z,22.05
2022-11-18T21:31:35.295Z,22.02
2022-11-18T21:34:02.241Z,22.25
2022-11-18T21:36:32.147Z,19.10
2022-11-18T21:39:02.664Z,19.27
2022-11-18T21:41:34.846Z,17.23
2022-11-18T21:44:06.352Z,19.17
2022-11-18T21:46:35.555Z,16.70
2022-11-18T21:49:02.227Z,16.05
2022-11-18T21:51:29.094Z,18.40
2022-11-18T21:53:55.844Z,15.32
2022-11-18T21:56:24.731Z,16.77
2022-11-18T21:58:52.456Z,17.38
2022-11-18T22:01:21.848Z,14.30
2022-11-18T22:03:55.549Z,15.63
2022-11-18T22:06:23.737Z,12.93
2022-11-18T22:08:50.890Z,11.73
2022-11-18T22:11:17.571Z,12.27
2022-11-18T22:13:44.354Z,11.82
2022-11-18T22:16:13.785Z,12.73
2022-11-18T22:18:43.450Z,10.00
2022-11-18T22:21:13.526Z,9.95
2022-11-18T22:23:40.391Z,10.68
2022-11-18T22:26:11.052Z,11.13
2022-11-18T22:28:38.377Z,9.25
2022-11-18T22:31:07.928Z,9.98
2022-11-18T22:33:34.696Z,8.95
2022-11-18T22:36:02.277Z,8.77
2022-11-18T22:38:37.183Z,8.73
2022-11-18T22:41:06.055Z,9.65
2022-11-18T22:43:34.482Z,7.63
2022-11-18T22:46:02.407Z,8.40
2022-11-18T22:48:30.159Z,8.55
2022-11-18T22:50:58.791Z,8.52
2022-11-18T22:53:25.479Z,7.90
2022-11-18T22:56:01.002Z,7.60
2022-11-18T22:58:27.885Z,7.93
2022-11-18T23:00:54.671Z,7.25
2022-11-18T23:03:21.785Z,6.85
2022-11-18T23:05:52.042Z,7.22
2022-11-18T23:08:26.493Z,7.40
2022-11-18T23:11:09.245Z,6.75
2022-11-18T23:13:44.930Z,6.13
2022-11-18T23:19:08.421Z,7.38
2022-11-18T23:21:50.873Z,6.28
2022-11-18T23:24:23.933Z,5.97
2022-11-18T23:26:56.117Z,6.10
2022-11-18T23:29:33.027Z,6.05
2022-11-18T23:32:08.023Z,5.53
2022-11-18T23:34:37.213Z,6.93
2022-11-18T23:37:09.843Z,5.05
2022-11-18T23:39:44.787Z,5.53
2022-11-18T23:42:41.095Z,5.57
2022-11-18T23:45:17.631Z,5.45
2022-11-18T23:48:15.508Z,5.30
2022-11-18T23:50:59.312Z,5.50
2022-11-18T23:53:39.441Z,4.78
2022-11-18T23:59:05.834Z,5.00
